createdAt,value
2023-10-02T00:01:10.350Z,6.63
2023-10-02T00:03:41.459Z,6.95
2023-10-02T00:06:11.071Z,6.22
2023-10-02T00:08:53.493Z,6.30
2023-10-02T00:11:42.764Z,6.32
2023-10-02T00:14:22.450Z,6.75
2023-10-02T00:17:02.642Z,6.72
2023-10-02T00:19:29.700Z,7.03
2023-10-02T00:22:00.986Z,6.22
2023-10-02T00:24:33.326Z,6.53
2023-10-02T00:27:00.113Z,6.80
2023-10-02T00:29:27.876Z,6.28
2023-10-02T00:31:54.837Z,6.15
2023-10-02T00:34:33.517Z,6.70
2023-10-02T00:37:01.638Z,5.70
2023-10-02T00:39:32.731Z,5.75
2023-10-02T00:42:17.536Z,5.63
2023-10-02T00:44:58.667Z,6.03
2023-10-02T00:47:48.666Z,6.05
2023-10-02T00:50:22.819Z,6.18
2023-10-02T00:52:49.397Z,6.47
2023-10-02T00:55:21.585Z,6.82
2023-10-02T00:57:52.006Z,7.38
2023-10-02T01:00:32.459Z,6.70
2023-10-02T01:03:13.461Z,6.80
2023-10-02T01:05:43.220Z,6.93
2023-10-02T01:08:26.117Z,6.70
2023-10-02T01:11:00.466Z,8.02
2023-10-02T01:13:30.485Z,7.88
2023-10-02T01:15:57.884Z,8.05
2023-10-02T01:18:28.983Z,8.02
2023-10-02T01:21:00.678Z,7.50
2023-10-02T01:23:28.701Z,8.27
2023-10-02T01:26:01.498Z,9.30
2023-10-02T01:28:50.670Z,8.27
2023-10-02T01:31:33.600Z,8.25
2023-10-02T01:34:00.725Z,8.68
2023-10-02T01:36:32.036Z,9.00
2023-10-02T01:39:17.470Z,8.77
2023-10-02T01:41:50.244Z,9.82
2023-10-02T01:44:21.589Z,9.38
2023-10-02T01:46:51.216Z,10.02
2023-10-02T01:49:28.909Z,9.15
2023-10-02T01:52:09.108Z,8.80
2023-10-02T01:54:36.771Z,9.68
2023-10-02T01:57:05.996Z,9.48
2023-10-02T01:59:32.792Z,9.73
2023-10-02T02:02:00.313Z,10.75
2023-10-02T02:04:32.273Z,10.25
2023-10-02T02:06:59.287Z,10.63
2023-10-02T02:09:33.666Z,9.95
2023-10-02T02:12:07.422Z,10.00
2023-10-02T02:14:51.910Z,9.55
2023-10-02T02:17:21.091Z,10.45
2023-10-02T02:19:50.282Z,9.70
2023-10-02T02:22:20.577Z,10.50
2023-10-02T02:24:48.873Z,10.45
2023-10-02T02:27:16.462Z,10.65
2023-10-02T02:29:44.438Z,10.23
2023-10-02T02:32:14.274Z,9.10
2023-10-02T02:34:41.717Z,8.70
2023-10-02T02:37:10.118Z,9.57
2023-10-02T02:39:40.158Z,8.90
2023-10-02T02:42:10.411Z,9.52
2023-10-02T02:44:41.363Z,9.10
2023-10-02T02:47:09.469Z,9.70
2023-10-02T02:49:50.072Z,8.75
2023-10-02T02:52:26.630Z,9.23
2023-10-02T02:55:00.668Z,9.18
2023-10-02T02:57:27.745Z,9.23
2023-10-02T03:00:16.557Z,8.85
2023-10-02T03:02:45.898Z,9.85
2023-10-02T03:05:12.624Z,9.32
2023-10-02T03:07:40.656Z,10.63
2023-10-02T03:10:14.230Z,9.57
2023-10-02T03:12:49.421Z,9.13
2023-10-02T03:15:19.173Z,9.93
2023-10-02T03:17:50.286Z,10.20
2023-10-02T03:20:26.168Z,9.98
2023-10-02T03:22:55.030Z,9.52
2023-10-02T03:28:29.590Z,8.00
2023-10-02T03:30:56.318Z,8.82
2023-10-02T03:36:28.960Z,8.95
2023-10-02T03:42:12.506Z,8.50
2023-10-02T03:44:38.994Z,7.25
2023-10-02T03:47:05.639Z,7.97
2023-10-02T03:49:35.123Z,7.90
2023-10-02T03:52:04.534Z,7.55
2023-10-02T03:54:31.169Z,6.50
2023-10-02T03:56:58.033Z,6.40
2023-10-02T03:59:27.991Z,6.43
2023-10-02T04:01:55.339Z,6.13
2023-10-02T04:04:22.940Z,6.25
2023-10-02T04:06:54.611Z,5.55
2023-10-02T04:09:22.433Z,5.55
2023-10-02T04:11:52.270Z,4.97
2023-10-02T04:14:19.902Z,4.70
2023-10-02T04:16:49.117Z,4.20
2023-10-02T04:21:46.858Z,4.47
2023-10-02T04:24:13.619Z,4.95
2023-10-02T04:26:43.343Z,5.35
2023-10-02T04:29:28.060Z,4.93
2023-10-02T04:32:15.706Z,5.22
2023-10-02T04:34:52.121Z,5.38
2023-10-02T04:37:24.897Z,6.35
2023-10-02T04:39:58.027Z,6.78
2023-10-02T04:42:30.152Z,5.95
2023-10-02T04:44:59.309Z,6.35
2023-10-02T04:50:06.925Z,6.00
2023-10-02T04:52:53.668Z,7.40
2023-10-02T04:55:26.519Z,6.47
2023-10-02T04:57:55.676Z,7.47
2023-10-02T05:00:29.255Z,7.93
2023-10-02T05:03:31.870Z,8.18
2023-10-02T05:06:04.566Z,7.53
2023-10-02T05:08:36.932Z,7.53
2023-10-02T05:11:07.828Z,8.20
2023-10-02T05:13:53.616Z,7.65
2023-10-02T05:16:36.674Z,8.40
2023-10-02T05:19:06.900Z,8.38
2023-10-02T05:21:52.459Z,8.50
2023-10-02T05:24:19.969Z,8.18
2023-10-02T05:26:47.877Z,8.13
2023-10-02T05:29:19.022Z,7.28
2023-10-02T05:31:46.763Z,7.05
2023-10-02T05:34:40.275Z,7.47
2023-10-02T05:37:14.281Z,7.40
2023-10-02T05:39:41.548Z,7.70
2023-10-02T05:42:09.674Z,6.75
2023-10-02T05:44:36.657Z,7.35
2023-10-02T05:47:07.130Z,8.00
2023-10-02T05:49:34.447Z,7.90
2023-10-02T05:52:04.473Z,7.68
2023-10-02T05:54:31.050Z,8.00
2023-10-02T05:57:09.988Z,8.77
2023-10-02T06:03:02.650Z,8.90
2023-10-02T06:05:31.054Z,9.48
2023-10-02T06:08:00.783Z,10.73
2023-10-02T06:10:31.849Z,11.13
2023-10-02T06:25:19.376Z,10.82
2023-10-02T06:27:48.354Z,10.88
2023-10-02T06:30:17.924Z,10.93
2023-10-02T06:32:56.742Z,10.50
2023-10-02T06:35:23.527Z,9.95
2023-10-02T06:37:50.485Z,9.23
2023-10-02T06:40:17.674Z,9.35
2023-10-02T06:42:51.090Z,8.95
2023-10-02T06:45:26.392Z,9.88
2023-10-02T06:47:52.955Z,10.43
2023-10-02T06:50:32.764Z,10.45
2023-10-02T06:53:00.307Z,10.18
2023-10-02T06:55:27.823Z,11.00
2023-10-02T06:57:54.930Z,10.18
2023-10-02T07:00:22.552Z,9.23
2023-10-02T07:02:58.499Z,9.95
2023-10-02T07:05:28.606Z,9.55
2023-10-02T07:08:02.540Z,9.50
2023-10-02T07:10:42.629Z,9.50
2023-10-02T07:13:22.108Z,10.80
2023-10-02T07:15:49.384Z,10.05
2023-10-02T07:18:16.368Z,10.70
2023-10-02T07:20:50.483Z,10.93
2023-10-02T07:23:20.801Z,10.60
2023-10-02T07:25:56.754Z,10.95
2023-10-02T07:28:23.281Z,9.63
2023-10-02T07:30:53.516Z,9.32
2023-10-02T07:33:20.944Z,9.93
2023-10-02T07:35:57.276Z,11.18
2023-10-02T07:38:44.354Z,10.50
2023-10-02T07:41:28.419Z,8.02
2023-10-02T07:44:17.172Z,8.10
2023-10-02T07:46:44.802Z,8.57
2023-10-02T07:49:11.543Z,8.02
2023-10-02T07:51:38.379Z,8.65
2023-10-02T07:54:05.607Z,8.82
2023-10-02T07:56:33.960Z,9.07
2023-10-02T07:59:04.559Z,9.07
2023-10-02T08:01:35.267Z,8.85
2023-10-02T08:04:03.656Z,10.57
2023-10-02T08:06:38.939Z,10.50
2023-10-02T08:09:27.485Z,10.30
2023-10-02T08:11:55.525Z,11.30
2023-10-02T08:14:36.316Z,11.15
2023-10-02T08:17:10.073Z,10.73
2023-10-02T08:19:37.642Z,10.75
2023-10-02T08:22:07.288Z,10.43
2023-10-02T08:24:39.262Z,10.20
2023-10-02T08:27:06.056Z,10.73
2023-10-02T08:29:33.878Z,10.45
2023-10-02T08:32:00.727Z,10.27
2023-10-02T08:34:28.340Z,9.65
2023-10-02T08:37:14.166Z,10.65
2023-10-02T08:39:41.306Z,10.40
2023-10-02T08:42:11.301Z,10.80
2023-10-02T08:44:42.541Z,11.15
2023-10-02T08:47:13.719Z,10.57
2023-10-02T08:49:40.942Z,10.43
2023-10-02T08:52:13.420Z,9.88
2023-10-02T08:54:47.608Z,9.57
2023-10-02T08:57:14.330Z,9.57
2023-10-02T08:59:42.107Z,8.68
2023-10-02T09:02:15.681Z,9.35
2023-10-02T09:04:53.255Z,8.85
2023-10-02T09:07:23.593Z,8.88
2023-10-02T09:10:05.118Z,8.52
2023-10-02T09:12:31.641Z,7.78
2023-10-02T09:15:31.291Z,8.02
2023-10-02T09:17:59.778Z,7.88
2023-10-02T09:20:40.263Z,7.70
2023-10-02T09:23:11.142Z,7.72
2023-10-02T09:25:38.930Z,8.00
2023-10-02T09:28:14.389Z,8.10
2023-10-02T09:30:43.758Z,8.40
2023-10-02T09:33:36.458Z,7.88
2023-10-02T09:36:22.961Z,8.07
2023-10-02T09:39:19.791Z,7.20
2023-10-02T09:41:47.892Z,7.25
2023-10-02T09:44:22.976Z,8.07
2023-10-02T09:46:53.532Z,7.03
2023-10-02T09:49:25.104Z,8.38
2023-10-02T09:52:13.559Z,7.93
2023-10-02T09:54:42.468Z,7.97
2023-10-02T09:57:14.332Z,7.82
2023-10-02T09:59:48.074Z,8.27
2023-10-02T10:02:21.816Z,7.50
2023-10-02T10:05:14.591Z,7.50
2023-10-02T10:07:53.639Z,6.63
2023-10-02T10:10:50.924Z,6.03
2023-10-02T10:13:33.250Z,6.95
2023-10-02T10:16:30.932Z,6.55
2023-10-02T10:19:06.511Z,5.75
2023-10-02T10:21:58.672Z,6.05
2023-10-02T10:24:52.311Z,6.10
2023-10-02T10:27:37.584Z,5.70
2023-10-02T10:30:36.729Z,5.90
2023-10-02T10:33:09.549Z,6.15
2023-10-02T10:35:37.506Z,6.20
2023-10-02T10:38:38.072Z,6.57
2023-10-02T10:41:16.085Z,5.85
2023-10-02T10:43:57.794Z,5.63
2023-10-02T10:46:25.614Z,5.82
2023-10-02T10:49:00.995Z,6.35
2023-10-02T10:51:35.227Z,6.53
2023-10-02T10:54:22.801Z,7.30
2023-10-02T10:57:20.847Z,6.70
2023-10-02T10:59:48.167Z,7.05
2023-10-02T11:02:16.753Z,6.95
2023-10-02T11:04:50.527Z,7.35
2023-10-02T11:07:21.060Z,7.55
2023-10-02T11:10:25.928Z,7.30
2023-10-02T11:12:58.925Z,7.45
2023-10-02T11:15:46.276Z,8.13
2023-10-02T11:18:20.307Z,8.88
2023-10-02T11:20:50.625Z,8.18
2023-10-02T11:23:24.529Z,8.13
2023-10-02T11:25:51.856Z,8.45
2023-10-02T11:28:28.629Z,9.00
2023-10-02T11:31:12.677Z,9.05
2023-10-02T11:33:41.591Z,8.68
2023-10-02T11:36:12.737Z,9.13
2023-10-02T11:38:39.927Z,9.60
2023-10-02T11:41:06.916Z,9.15
2023-10-02T11:43:35.562Z,8.82
2023-10-02T11:46:02.381Z,8.77
2023-10-02T11:48:29.028Z,9.02
2023-10-02T11:50:56.709Z,8.50
2023-10-02T11:53:23.246Z,9.07
2023-10-02T11:55:51.322Z,8.80
2023-10-02T11:58:17.861Z,9.43
2023-10-02T12:00:46.361Z,9.43
2023-10-02T12:03:15.331Z,10.80
2023-10-02T12:05:42.044Z,9.63
2023-10-02T12:08:08.829Z,10.52
2023-10-02T12:10:35.704Z,10.10
2023-10-02T12:13:03.540Z,9.85
2023-10-02T12:15:30.443Z,10.45
2023-10-02T12:17:57.493Z,10.50
2023-10-02T12:20:24.572Z,10.45
2023-10-02T12:22:52.305Z,10.32
2023-10-02T12:25:18.857Z,10.75
2023-10-02T12:27:45.539Z,10.32
2023-10-02T12:30:12.703Z,10.63
2023-10-02T12:32:39.855Z,10.05
2023-10-02T12:35:06.936Z,11.40
2023-10-02T12:37:33.547Z,9.60
2023-10-02T12:40:00.201Z,10.88
2023-10-02T12:42:27.255Z,10.32
2023-10-02T12:44:55.358Z,10.05
2023-10-02T12:47:25.079Z,10.40
2023-10-02T12:49:55.744Z,9.88
2023-10-02T12:52:24.551Z,9.88
2023-10-02T12:54:51.087Z,10.65
2023-10-02T12:57:17.698Z,10.55
2023-10-02T12:59:45.103Z,10.57
2023-10-02T13:02:11.809Z,11.30
2023-10-02T13:04:38.859Z,11.15
2023-10-02T13:07:06.301Z,10.43
2023-10-02T13:09:34.422Z,10.50
2023-10-02T13:12:01.890Z,9.93
2023-10-02T13:14:57.408Z,11.70
2023-10-02T13:17:24.035Z,11.70
2023-10-02T13:19:51.145Z,11.27
2023-10-02T13:22:17.726Z,11.65
2023-10-02T13:24:44.401Z,11.63
2023-10-02T13:27:10.828Z,11.55
2023-10-02T13:29:37.885Z,11.88
2023-10-02T13:32:06.608Z,12.10
2023-10-02T13:34:33.291Z,13.43
2023-10-02T13:37:00.513Z,12.38
2023-10-02T13:39:28.171Z,12.27
2023-10-02T13:41:54.831Z,12.52
2023-10-02T13:44:22.353Z,12.77
2023-10-02T13:46:52.425Z,12.02
2023-10-02T13:49:20.818Z,13.10
2023-10-02T13:51:47.753Z,12.80
2023-10-02T13:54:14.384Z,13.05
2023-10-02T13:56:41.310Z,11.90
2023-10-02T13:59:07.934Z,12.55
2023-10-02T14:01:35.300Z,13.30
2023-10-02T14:04:05.023Z,12.38
2023-10-02T14:06:31.629Z,13.23
2023-10-02T14:08:58.649Z,11.32
2023-10-02T14:11:26.895Z,6.88
2023-10-02T14:13:58.721Z,5.07
2023-10-02T14:16:27.517Z,4.63
2023-10-02T14:18:55.483Z,4.00
2023-10-02T14:21:23.098Z,4.60
2023-10-02T14:23:53.698Z,4.68
2023-10-02T14:26:21.581Z,4.60
2023-10-02T14:28:48.270Z,4.82
2023-10-02T14:31:23.924Z,4.07
2023-10-02T14:33:50.693Z,3.92
2023-10-02T14:36:17.281Z,3.10
2023-10-02T14:38:43.799Z,3.28
2023-10-02T14:41:10.764Z,2.90
2023-10-02T14:43:37.859Z,2.72
2023-10-02T14:46:05.618Z,2.88
2023-10-02T14:48:47.004Z,3.10
2023-10-02T14:51:15.121Z,5.78
2023-10-02T14:53:42.164Z,5.45
2023-10-02T14:56:09.232Z,3.90
2023-10-02T14:58:42.298Z,3.55
2023-10-02T15:01:14.359Z,3.65
2023-10-02T15:03:41.766Z,5.43
2023-10-02T15:06:13.336Z,5.82
2023-10-02T15:08:40.627Z,5.50
2023-10-02T15:11:07.714Z,6.32
2023-10-02T15:13:35.009Z,6.45
2023-10-02T15:16:01.747Z,7.20
2023-10-02T15:18:28.348Z,8.95
2023-10-02T15:20:56.704Z,9.20
2023-10-02T15:23:23.742Z,9.15
2023-10-02T15:25:52.565Z,9.18
2023-10-02T15:28:20.563Z,10.57
2023-10-02T15:30:47.284Z,11.45
2023-10-02T15:33:13.992Z,11.43
2023-10-02T15:35:40.980Z,11.52
2023-10-02T15:38:09.102Z,12.73
2023-10-02T15:40:37.815Z,12.70
2023-10-02T15:43:04.842Z,12.98
2023-10-02T15:45:32.991Z,13.55
2023-10-02T15:47:59.935Z,12.57
2023-10-02T15:50:28.194Z,12.98
2023-10-02T15:52:55.534Z,12.80
2023-10-02T15:55:22.643Z,13.15
2023-10-02T15:57:50.297Z,13.18
2023-10-02T16:00:24.116Z,12.77
2023-10-02T16:02:52.460Z,10.95
2023-10-02T16:05:19.679Z,10.07
2023-10-02T16:07:50.275Z,9.43
2023-10-02T16:10:17.700Z,9.05
2023-10-02T16:12:47.229Z,8.43
2023-10-02T16:15:24.833Z,7.65
2023-10-02T16:17:56.215Z,7.60
2023-10-02T16:20:24.001Z,6.95
2023-10-02T16:22:52.079Z,6.10
2023-10-02T16:25:20.446Z,4.95
2023-10-02T16:27:49.207Z,4.82
2023-10-02T16:30:16.605Z,3.90
2023-10-02T16:32:49.890Z,3.40
2023-10-02T16:35:17.648Z,4.43
2023-10-02T16:37:44.588Z,4.78
2023-10-02T16:40:23.920Z,3.95
2023-10-02T16:42:53.469Z,3.50
2023-10-02T16:47:50.867Z,2.13
2023-10-02T16:50:20.638Z,2.88
2023-10-02T16:52:48.930Z,2.92
2023-10-02T16:55:19.931Z,2.57
2023-10-02T16:57:51.929Z,2.78
2023-10-02T17:00:22.040Z,2.38
2023-10-02T17:02:50.020Z,2.50
2023-10-02T17:05:20.751Z,2.30
2023-10-02T17:07:48.278Z,2.42
2023-10-02T17:10:17.668Z,2.50
2023-10-02T17:12:45.468Z,2.60
2023-10-02T17:15:13.702Z,2.45
2023-10-02T17:17:42.882Z,2.37
2023-10-02T17:20:10.805Z,2.95
2023-10-02T17:22:41.017Z,2.60
2023-10-02T17:25:12.677Z,3.05
2023-10-02T17:27:40.534Z,2.80
2023-10-02T17:30:07.767Z,2.85
2023-10-02T17:32:34.786Z,3.15
2023-10-02T17:35:02.115Z,3.35
2023-10-02T17:37:28.716Z,3.05
2023-10-02T17:39:55.223Z,2.80
2023-10-02T17:42:22.078Z,3.38
2023-10-02T17:44:51.324Z,3.33
2023-10-02T17:47:18.005Z,3.55
2023-10-02T17:49:44.821Z,4.20
2023-10-02T17:52:12.996Z,5.47
2023-10-02T17:54:42.702Z,5.53
2023-10-02T17:57:14.413Z,8.05
2023-10-02T17:59:41.743Z,8.73
2023-10-02T18:02:25.086Z,9.55
2023-10-02T18:04:54.481Z,11.65
2023-10-02T18:07:21.590Z,13.35
2023-10-02T18:09:51.685Z,15.27
2023-10-02T18:12:18.573Z,15.65
2023-10-02T18:14:45.235Z,16.90
2023-10-02T18:17:13.342Z,17.38
2023-10-02T18:19:40.094Z,18.23
2023-10-02T18:22:07.258Z,18.60
2023-10-02T18:24:33.905Z,18.70
2023-10-02T18:27:01.047Z,19.02
2023-10-02T18:29:30.034Z,17.98
2023-10-02T18:34:40.104Z,19.40
2023-10-02T18:37:10.142Z,18.88
2023-10-02T18:39:36.647Z,19.77
2023-10-02T18:42:05.155Z,19.65
2023-10-02T18:44:44.414Z,19.77
2023-10-02T18:47:14.102Z,18.73
2023-10-02T18:49:40.661Z,19.90
2023-10-02T18:52:08.013Z,20.38
2023-10-02T18:54:35.578Z,19.27
2023-10-02T18:57:02.422Z,19.38
2023-10-02T18:59:29.132Z,20.63
2023-10-02T19:01:55.831Z,21.00
2023-10-02T19:04:22.718Z,18.98
2023-10-02T19:06:49.468Z,18.38
2023-10-02T19:09:18.972Z,19.92
2023-10-02T19:11:48.559Z,19.15
2023-10-02T19:14:15.413Z,19.05
2023-10-02T19:16:42.470Z,20.67
2023-10-02T19:19:09.064Z,20.30
2023-10-02T19:21:36.388Z,20.15
2023-10-02T19:24:03.920Z,21.15
2023-10-02T19:26:33.745Z,18.48
2023-10-02T19:29:04.135Z,19.77
2023-10-02T19:31:31.474Z,20.50
2023-10-02T19:33:58.295Z,19.60
2023-10-02T19:36:24.943Z,19.10
2023-10-02T19:38:51.700Z,19.40
2023-10-02T19:41:21.549Z,19.20
2023-10-02T19:43:53.850Z,18.05
2023-10-02T19:46:20.816Z,18.85
2023-10-02T19:48:48.739Z,19.33
2023-10-02T19:51:16.107Z,18.50
2023-10-02T19:53:43.077Z,18.52
2023-10-02T19:56:10.897Z,19.23
2023-10-02T19:58:37.610Z,20.55
2023-10-02T20:01:05.828Z,20.50
2023-10-02T20:03:32.991Z,19.63
2023-10-02T20:06:02.753Z,19.63
2023-10-02T20:08:29.470Z,20.42
2023-10-02T20:11:01.383Z,20.02
2023-10-02T20:13:28.510Z,20.25
2023-10-02T20:15:55.453Z,19.73
2023-10-02T20:18:22.868Z,20.20
2023-10-02T20:20:49.763Z,20.73
2023-10-02T20:23:19.282Z,20.83
2023-10-02T20:29:15.200Z,18.90
2023-10-02T20:31:44.304Z,19.90
2023-10-02T20:36:46.122Z,18.73
2023-10-02T20:39:17.313Z,20.08
2023-10-02T20:41:46.041Z,20.08
2023-10-02T20:44:14.805Z,20.23
2023-10-02T20:46:45.660Z,18.92
2023-10-02T20:49:17.182Z,18.90
2023-10-02T20:51:44.987Z,19.75
2023-10-02T20:54:35.276Z,20.55
2023-10-02T20:57:40.154Z,20.25
2023-10-02T21:00:08.610Z,19.98
2023-10-02T21:02:35.184Z,20.05
2023-10-02T21:05:01.910Z,19.52
2023-10-02T21:07:28.480Z,20.80
2023-10-02T21:09:55.057Z,21.15
2023-10-02T21:12:22.951Z,21.02
2023-10-02T21:14:52.714Z,20.98
2023-10-02T21:17:19.225Z,21.90
2023-10-02T21:19:45.657Z,21.13
2023-10-02T21:22:12.130Z,21.10
2023-10-02T21:24:38.587Z,21.42
2023-10-02T21:27:06.872Z,21.20
2023-10-02T21:29:33.444Z,23.88
2023-10-02T21:31:59.864Z,21.85
2023-10-02T21:34:27.527Z,21.80
2023-10-02T21:36:54.022Z,20.90
2023-10-02T21:39:20.421Z,21.75
2023-10-02T21:41:47.278Z,21.75
2023-10-02T21:44:13.873Z,22.92
2023-10-02T21:46:40.422Z,21.45
2023-10-02T21:49:06.952Z,21.33
2023-10-02T21:51:34.421Z,21.83
2023-10-02T21:54:00.936Z,21.77
2023-10-02T21:56:29.109Z,21.38
2023-10-02T21:58:58.888Z,20.80
2023-10-02T22:01:25.582Z,21.75
2023-10-02T22:03:55.473Z,20.63
2023-10-02T22:06:22.913Z,20.40
2023-10-02T22:08:49.960Z,20.65
2023-10-02T22:11:38.823Z,19.77
2023-10-02T22:16:49.020Z,18.95
2023-10-02T22:19:16.969Z,19.70
2023-10-02T22:21:45.579Z,19.10
2023-10-02T22:24:14.808Z,20.77
2023-10-02T22:26:42.094Z,19.83
2023-10-02T22:29:10.259Z,20.55
2023-10-02T22:31:37.464Z,20.20
2023-10-02T22:34:06.835Z,21.05
2023-10-02T22:36:36.438Z,21.13
2023-10-02T22:39:04.331Z,20.98
2023-10-02T22:41:30.979Z,21.98
2023-10-02T22:43:58.558Z,22.30
2023-10-02T22:46:25.895Z,22.80
2023-10-02T22:48:52.392Z,22.60
2023-10-02T22:51:19.342Z,23.45
2023-10-02T22:53:46.127Z,23.13
2023-10-02T22:56:13.853Z,22.02
2023-10-02T22:58:41.501Z,23.65
2023-10-02T23:01:09.715Z,24.00
2023-10-02T23:03:37.166Z,21.90
2023-10-02T23:06:05.806Z,21.85
2023-10-02T23:08:34.760Z,21.70
2023-10-02T23:11:03.838Z,20.98
2023-10-02T23:13:30.833Z,20.70
2023-10-02T23:15:57.572Z,20.45
2023-10-02T23:18:26.443Z,21.02
2023-10-02T23:20:56.330Z,20.52
2023-10-02T23:23:22.968Z,20.35
2023-10-02T23:25:49.533Z,19.20
2023-10-02T23:28:17.551Z,20.88
2023-10-02T23:30:47.290Z,19.17
2023-10-02T23:33:17.359Z,19.05
2023-10-02T23:35:44.686Z,18.88
2023-10-02T23:38:12.820Z,18.00
2023-10-02T23:40:45.592Z,17.63
2023-10-02T23:43:15.481Z,18.83
2023-10-02T23:45:43.352Z,17.42
2023-10-02T23:48:16.083Z,16.90
2023-10-02T23:50:49.014Z,16.27
2023-10-02T23:53:16.713Z,17.52
2023-10-02T23:55:43.507Z,16.80
2023-10-02T23:58:09.960Z,17.70
